Time;durP1;ratioP1;P1;durP2;ratioP2;P2;SDS_P1;SDS_P2;PMS_P1;PMS_P2;Temp;Humidity;BMP_temperature;BMP_pressure;BME280_temperature;BME280_humidity;BME280_pressure;Samples;Min_cycle;Max_cycle;Signal;HPM_P1;HPM_P2
2023/04/04 00:00:08;;;;;;;;;;;;;;;10.08;100.00;98372.94;5094341;28;20333;-42
2023/04/04 00:02:33;;;;;;;;;;;;;;;10.11;100.00;98367.16;5094039;28;19916;-41
2023/04/04 00:04:59;;;;;;;;;;;;;;;10.22;100.00;98372.69;5094056;28;20355;-41
2023/04/04 00:07:24;;;;;;;;;;;;;;;10.29;100.00;98362.75;5093473;28;20433;-42
2023/04/04 00:09:50;;;;;;;;;;;;;;;10.41;100.00;98360.06;5093630;28;19912;-42
2023/04/04 00:12:15;;;;;;;;;;;;;;;10.23;100.00;98345.06;5093103;28;19923;-42
2023/04/04 00:14:40;;;;;;;;;;;;;;;10.34;100.00;98330.97;5093389;28;19991;-42
2023/04/04 00:17:06;;;;;;;;;;;;;;;10.37;100.00;98341.13;5093380;28;19912;-42
2023/04/04 00:19:31;;;;;;;;;;;;;;;10.18;100.00;98333.31;5093062;28;19919;-42
2023/04/04 00:21:56;;;;;;;;;;;;;;;9.98;100.00;98335.53;5093127;28;19935;-42
2023/04/04 00:24:21;;;;;;;;;;;;;;;10.20;100.00;98327.72;5092946;28;20015;-42
2023/04/04 00:26:47;;;;;;;;;;;;;;;10.06;100.00;98327.19;5092940;28;19916;-42
2023/04/04 00:29:12;;;;;;;;;;;;;;;9.87;100.00;98317.75;5093633;28;19923;-41
2023/04/04 00:31:37;;;;;;;;;;;;;;;10.00;100.00;98327.31;5093273;28;19916;-42
2023/04/04 00:34:03;;;;;;;;;;;;;;;10.22;100.00;98322.19;5093719;28;19938;-41
2023/04/04 00:36:28;;;;;;;;;;;;;;;10.11;100.00;98319.31;5093360;28;19916;-41
2023/04/04 00:38:53;;;;;;;;;;;;;;;10.11;100.00;98335.28;5093443;28;19920;-42
2023/04/04 00:41:19;;;;;;;;;;;;;;;10.31;100.00;98334.09;5093154;28;19920;-41
2023/04/04 00:43:45;;;;;;;;;;;;;;;10.28;100.00;98332.69;5093261;28;19923;-41
2023/04/04 00:46:13;;;;;;;;;;;;;;;10.27;100.00;98338.25;5093254;28;20340;-41
2023/04/04 00:48:39;;;;;;;;;;;;;;;9.98;100.00;98330.22;5093675;28;19934;-42
2023/04/04 00:51:05;;;;;;;;;;;;;;;10.13;100.00;98325.22;5093217;28;20370;-41
2023/04/04 00:53:31;;;;;;;;;;;;;;;10.23;100.00;98334.44;5093140;28;19916;-41
2023/04/04 00:55:56;;;;;;;;;;;;;;;10.35;100.00;98313.97;5092125;28;20422;-41
2023/04/04 00:58:23;;;;;;;;;;;;;;;10.36;100.00;98318.25;5093004;28;19939;-41
2023/04/04 01:00:49;;;;;;;;;;;;;;;10.49;100.00;98317.97;5093253;28;19912;-42
2023/04/04 01:03:14;;;;;;;;;;;;;;;10.45;100.00;98311.50;5092803;28;19912;-41
2023/04/04 01:05:40;;;;;;;;;;;;;;;10.53;100.00;98312.97;5092765;28;19962;-41
2023/04/04 01:08:06;;;;;;;;;;;;;;;10.30;100.00;98304.03;5092818;28;19912;-41
2023/04/04 01:10:31;;;;;;;;;;;;;;;10.43;100.00;98308.25;5092953;28;19919;-41
2023/04/04 01:12:57;;;;;;;;;;;;;;;10.44;100.00;98312.53;5092841;28;20352;-41
2023/04/04 01:15:22;;;;;;;;;;;;;;;10.47;100.00;98317.41;5092839;28;19919;-42
2023/04/04 01:17:48;;;;;;;;;;;;;;;10.45;100.00;98313.34;5091881;28;19912;-41
2023/04/04 01:20:15;;;;;;;;;;;;;;;10.50;100.00;98311.59;5092654;28;19916;-42
2023/04/04 01:22:41;;;;;;;;;;;;;;;10.39;100.00;98306.31;5092539;28;19923;-41
2023/04/04 01:25:06;;;;;;;;;;;;;;;10.35;100.00;98300.66;5092419;28;19931;-41
2023/04/04 01:27:32;;;;;;;;;;;;;;;10.48;100.00;98296.91;5092359;28;19912;-41
2023/04/04 01:29:57;;;;;;;;;;;;;;;10.44;100.00;98296.59;5092717;28;19919;-41
2023/04/04 01:32:25;;;;;;;;;;;;;;;10.32;100.00;98278.03;5092211;28;20148;-42
2023/04/04 01:35:00;;;;;;;;;;;;;;;10.40;100.00;98289.34;5092345;28;19939;-41
2023/04/04 01:37:48;;;;;;;;;;;;;;;10.46;100.00;98291.84;5092090;28;20275;-42
2023/04/04 01:40:21;;;;;;;;;;;;;;;10.35;100.00;98298.00;5092312;28;20403;-42
2023/04/04 01:42:46;;;;;;;;;;;;;;;10.46;100.00;98289.19;5092540;28;19919;-42
2023/04/04 01:45:12;;;;;;;;;;;;;;;10.40;100.00;98295.44;5091464;28;19912;-42
2023/04/04 01:47:40;;;;;;;;;;;;;;;10.28;100.00;98290.16;5092133;28;19912;-42
2023/04/04 01:50:06;;;;;;;;;;;;;;;10.20;100.00;98271.91;5091635;28;20304;-42
2023/04/04 01:52:32;;;;;;;;;;;;;;;10.32;100.00;98283.34;5091797;28;20341;-42
2023/04/04 01:54:57;;;;;;;;;;;;;;;10.14;100.00;98292.25;5091987;28;19958;-42
2023/04/04 01:57:22;;;;;;;;;;;;;;;10.12;100.00;98286.38;5091788;28;19935;-42
2023/04/04 01:59:47;;;;;;;;;;;;;;;10.24;100.00;98277.53;5091988;28;20006;-42
2023/04/04 02:02:13;;;;;;;;;;;;;;;10.26;100.00;98286.09;5092114;28;20433;-42
2023/04/04 02:04:38;;;;;;;;;;;;;;;10.09;100.00;98272.75;5091729;28;19995;-42
2023/04/04 02:07:03;;;;;;;;;;;;;;;10.14;100.00;98270.19;5091473;28;20382;-42
2023/04/04 02:09:28;;;;;;;;;;;;;;;10.00;100.00;98284.81;5091713;28;19959;-42
2023/04/04 02:11:54;;;;;;;;;;;;;;;10.11;100.00;98260.00;5091590;28;19928;-42
2023/04/04 02:14:20;;;;;;;;;;;;;;;10.11;100.00;98265.34;5091674;28;20003;-42
2023/04/04 02:16:45;;;;;;;;;;;;;;;9.97;100.00;98281.53;5091548;28;20347;-42
2023/04/04 02:19:11;;;;;;;;;;;;;;;10.26;100.00;98275.47;5091273;28;19911;-42
2023/04/04 02:21:37;;;;;;;;;;;;;;;10.17;100.00;98267.06;5090837;28;19912;-42
2023/04/04 02:24:02;;;;;;;;;;;;;;;10.27;100.00;98269.91;5091242;28;19920;-43
2023/04/04 02:26:27;;;;;;;;;;;;;;;10.24;100.00;98274.88;5091475;28;20391;-42
2023/04/04 02:28:53;;;;;;;;;;;;;;;10.18;100.00;98272.16;5091356;28;20470;-42
2023/04/04 02:31:18;;;;;;;;;;;;;;;10.23;100.00;98267.97;5091157;28;19942;-42
2023/04/04 02:33:43;;;;;;;;;;;;;;;10.50;100.00;98276.22;5090952;28;20363;-42
2023/04/04 02:36:08;;;;;;;;;;;;;;;10.72;100.00;98276.34;5091002;28;19919;-42
2023/04/04 02:38:34;;;;;;;;;;;;;;;10.61;100.00;98272.69;5091472;28;20285;-42
2023/04/04 02:40:59;;;;;;;;;;;;;;;10.50;100.00;98271.69;5091265;28;19912;-42
2023/04/04 02:43:24;;;;;;;;;;;;;;;10.54;100.00;98285.31;5091039;28;20652;-42
2023/04/04 02:45:50;;;;;;;;;;;;;;;10.52;100.00;98266.13;5091351;28;19969;-42
2023/04/04 02:48:15;;;;;;;;;;;;;;;10.51;100.00;98288.47;5090984;28;19912;-42
2023/04/04 02:50:41;;;;;;;;;;;;;;;10.39;100.00;98285.84;5091073;28;19913;-42
2023/04/04 02:53:06;;;;;;;;;;;;;;;10.78;100.00;98267.38;5090860;28;19916;-42
2023/04/04 02:55:31;;;;;;;;;;;;;;;10.74;100.00;98268.91;5090100;28;19927;-42
2023/04/04 02:57:57;;;;;;;;;;;;;;;10.83;100.00;98277.31;5091045;28;19942;-42
2023/04/04 03:00:22;;;;;;;;;;;;;;;10.73;100.00;98272.63;5089376;28;20448;-42
2023/04/04 03:02:54;;;;;;;;;;;;;;;10.89;100.00;98293.13;5090773;28;20057;-41
2023/04/04 03:05:20;;;;;;;;;;;;;;;10.57;100.00;98276.88;5090797;28;20375;-36
2023/04/04 03:07:45;;;;;;;;;;;;;;;10.68;100.00;98280.50;5090926;28;19912;-37
2023/04/04 03:10:10;;;;;;;;;;;;;;;10.79;100.00;98276.97;5090850;28;19923;-36
2023/04/04 03:12:36;;;;;;;;;;;;;;;10.65;100.00;98275.69;5090724;28;19920;-36
2023/04/04 03:15:01;;;;;;;;;;;;;;;10.69;100.00;98269.63;5085039;28;20410;-36
2023/04/04 03:17:28;;;;;;;;;;;;;;;10.59;100.00;98277.44;5091549;28;19912;-36
2023/04/04 03:19:53;;;;;;;;;;;;;;;10.88;100.00;98280.84;5095258;28;19912;-36
2023/04/04 03:22:18;;;;;;;;;;;;;;;10.74;100.00;98272.38;5094581;28;19919;-37
2023/04/04 03:24:43;;;;;;;;;;;;;;;10.81;100.00;98285.53;5094814;28;19928;-36
2023/04/04 03:27:10;;;;;;;;;;;;;;;10.66;100.00;98277.28;5094427;28;19912;-36
2023/04/04 03:29:35;;;;;;;;;;;;;;;10.67;100.00;98269.06;5094918;28;19924;-36
2023/04/04 03:32:00;;;;;;;;;;;;;;;10.68;100.00;98278.66;5094657;28;20004;-36
2023/04/04 03:34:27;;;;;;;;;;;;;;;10.87;100.00;98289.06;5094718;28;19960;-36
2023/04/04 03:36:52;;;;;;;;;;;;;;;10.82;100.00;98294.34;5094471;28;20399;-36
2023/04/04 03:39:18;;;;;;;;;;;;;;;10.82;100.00;98303.13;5094677;28;19919;-36
2023/04/04 03:41:43;;;;;;;;;;;;;;;10.86;100.00;98312.22;5093846;28;20397;-36
2023/04/04 03:44:08;;;;;;;;;;;;;;;10.71;100.00;98302.13;5094446;28;20008;-36
2023/04/04 03:46:33;;;;;;;;;;;;;;;10.65;100.00;98273.03;5094402;28;19927;-37
2023/04/04 03:48:59;;;;;;;;;;;;;;;10.87;100.00;98297.88;5094204;28;19912;-36
2023/04/04 03:51:24;;;;;;;;;;;;;;;10.95;100.00;98296.69;5094435;28;20389;-37
2023/04/04 03:53:50;;;;;;;;;;;;;;;11.13;100.00;98304.41;5094100;28;19990;-37
2023/04/04 03:56:15;;;;;;;;;;;;;;;10.80;100.00;98299.09;5094058;28;20352;-37
2023/04/04 03:58:41;;;;;;;;;;;;;;;10.74;100.00;98306.19;5094405;28;20330;-42
2023/04/04 04:01:06;;;;;;;;;;;;;;;10.76;100.00;98312.84;5094033;28;20329;-41
2023/04/04 04:03:31;;;;;;;;;;;;;;;10.92;100.00;98316.59;5094758;28;19912;-42
2023/04/04 04:05:58;;;;;;;;;;;;;;;11.05;100.00;98320.78;5095098;28;19912;-42
2023/04/04 04:08:23;;;;;;;;;;;;;;;10.95;100.00;98313.44;5093924;28;19920;-42
2023/04/04 04:10:48;;;;;;;;;;;;;;;10.92;100.00;98313.13;5093565;28;19973;-42
2023/04/04 04:13:13;;;;;;;;;;;;;;;10.85;100.00;98320.44;5093024;28;20339;-42
2023/04/04 04:15:39;;;;;;;;;;;;;;;10.70;100.00;98316.47;5092881;28;19912;-41
2023/04/04 04:18:04;;;;;;;;;;;;;;;10.85;100.00;98317.78;5108261;28;19920;-41
2023/04/04 04:20:29;;;;;;;;;;;;;;;10.82;100.00;98292.47;5113350;28;19912;-41
2023/04/04 04:22:55;;;;;;;;;;;;;;;10.73;100.00;98317.84;5112821;28;19919;-41
2023/04/04 04:25:20;;;;;;;;;;;;;;;10.72;100.00;98310.94;5113211;28;20534;-41
2023/04/04 04:27:45;;;;;;;;;;;;;;;10.83;100.00;98317.22;5112696;28;20303;-42
2023/04/04 04:30:11;;;;;;;;;;;;;;;10.71;100.00;98312.75;5112946;28;19912;-41
2023/04/04 04:32:37;;;;;;;;;;;;;;;10.54;100.00;98320.69;5112555;28;19968;-42
2023/04/04 04:35:02;;;;;;;;;;;;;;;10.56;100.00;98321.25;5113023;28;19912;-41
2023/04/04 04:37:27;;;;;;;;;;;;;;;10.99;100.00;98313.78;5113086;28;19911;-42
2023/04/04 04:39:53;;;;;;;;;;;;;;;11.08;100.00;98328.31;5098770;28;19948;-42
2023/04/04 04:42:18;;;;;;;;;;;;;;;10.69;100.00;98325.50;5092054;28;20428;-42
2023/04/04 04:44:44;;;;;;;;;;;;;;;10.98;100.00;98325.47;5091970;28;19916;-43
2023/04/04 04:47:09;;;;;;;;;;;;;;;10.90;100.00;98320.53;5092120;28;20002;-41
2023/04/04 04:49:34;;;;;;;;;;;;;;;10.95;100.00;98326.75;5091555;28;19931;-41
2023/04/04 04:52:01;;;;;;;;;;;;;;;10.68;100.00;98342.53;5091414;28;20011;-41
2023/04/04 04:54:26;;;;;;;;;;;;;;;10.72;100.00;98327.69;5091295;28;19914;-40
2023/04/04 04:56:52;;;;;;;;;;;;;;;10.83;100.00;98330.53;5091120;28;19961;-40
2023/04/04 04:59:17;;;;;;;;;;;;;;;11.03;100.00;98325.56;5090877;28;19912;-42
2023/04/04 05:01:42;;;;;;;;;;;;;;;10.92;100.00;98332.56;5090966;28;19943;-41
2023/04/04 05:04:07;;;;;;;;;;;;;;;10.87;100.00;98321.84;5091215;28;19918;-41
2023/04/04 05:06:33;;;;;;;;;;;;;;;10.91;100.00;98319.50;5085879;28;19912;-41
2023/04/04 05:08:58;;;;;;;;;;;;;;;11.07;100.00;98331.22;5092143;28;19916;-41
2023/04/04 05:11:25;;;;;;;;;;;;;;;10.81;100.00;98333.41;5091269;28;20004;-41
2023/04/04 05:13:50;;;;;;;;;;;;;;;10.91;100.00;98336.28;5091066;28;19912;-42
2023/04/04 05:16:15;;;;;;;;;;;;;;;10.88;100.00;98323.44;5090728;28;20276;-42
2023/04/04 05:18:40;;;;;;;;;;;;;;;11.09;100.00;98318.47;5091235;28;20015;-37
2023/04/04 05:21:06;;;;;;;;;;;;;;;10.97;100.00;98318.53;5091163;28;19977;-35
2023/04/04 05:23:31;;;;;;;;;;;;;;;10.80;100.00;98321.19;5090631;28;19931;-42
2023/04/04 05:25:57;;;;;;;;;;;;;;;10.83;100.00;98325.19;5091153;28;19916;-41
2023/04/04 05:28:22;;;;;;;;;;;;;;;10.64;100.00;98321.94;5091135;28;19912;-41
2023/04/04 05:30:47;;;;;;;;;;;;;;;10.51;100.00;98331.03;5090883;28;19924;-42
2023/04/04 05:33:13;;;;;;;;;;;;;;;10.44;100.00;98317.84;5091131;28;20390;-42
2023/04/04 05:35:39;;;;;;;;;;;;;;;10.49;100.00;98327.78;5091151;28;20382;-41
2023/04/04 05:38:05;;;;;;;;;;;;;;;10.73;100.00;98326.63;5089999;28;20321;-41
2023/04/04 05:40:30;;;;;;;;;;;;;;;10.84;100.00;98316.97;5090575;28;19943;-42
2023/04/04 05:42:56;;;;;;;;;;;;;;;10.79;100.00;98316.09;5098322;28;19915;-41
2023/04/04 05:45:22;;;;;;;;;;;;;;;10.79;100.00;98324.88;5094648;28;20008;-41
2023/04/04 05:47:47;;;;;;;;;;;;;;;10.94;100.00;98327.00;5086323;28;19970;-41
2023/04/04 05:50:13;;;;;;;;;;;;;;;10.98;100.00;98336.09;5092761;28;19916;-36
2023/04/04 05:52:38;;;;;;;;;;;;;;;10.90;100.00;98331.97;5090939;28;19924;-35
2023/04/04 05:55:03;;;;;;;;;;;;;;;10.99;100.00;98342.25;5090938;28;19935;-37
2023/04/04 05:57:29;;;;;;;;;;;;;;;11.08;100.00;98336.31;5090902;28;19923;-37
2023/04/04 05:59:54;;;;;;;;;;;;;;;10.80;100.00;98344.31;5090979;28;19916;-37
2023/04/04 06:02:19;;;;;;;;;;;;;;;10.84;100.00;98332.16;5088795;28;19916;-35
2023/04/04 06:04:45;;;;;;;;;;;;;;;10.74;100.00;98338.91;5090292;28;19923;-36
2023/04/04 06:07:10;;;;;;;;;;;;;;;10.79;100.00;98342.69;5089853;28;19934;-36
2023/04/04 06:09:35;;;;;;;;;;;;;;;10.98;100.00;98348.63;5090483;28;19912;-35
2023/04/04 06:12:03;;;;;;;;;;;;;;;10.99;100.00;98353.72;5090260;28;19917;-37
2023/04/04 06:14:28;;;;;;;;;;;;;;;11.08;100.00;98346.13;5089936;28;19935;-37
2023/04/04 06:16:54;;;;;;;;;;;;;;;11.02;100.00;98350.53;5085168;28;19996;-35
2023/04/04 06:19:19;;;;;;;;;;;;;;;10.77;100.00;98356.22;5090445;28;20268;-36
2023/04/04 06:21:45;;;;;;;;;;;;;;;10.79;100.00;98356.00;5090297;28;20546;-38
2023/04/04 06:24:10;;;;;;;;;;;;;;;10.88;100.00;98359.91;5089643;28;19920;-35
2023/04/04 06:26:36;;;;;;;;;;;;;;;10.88;100.00;98351.91;5090082;28;19924;-36
2023/04/04 06:29:01;;;;;;;;;;;;;;;10.85;100.00;98353.22;5089571;28;19952;-38
2023/04/04 06:31:27;;;;;;;;;;;;;;;11.00;100.00;98347.31;5089165;28;19978;-36
2023/04/04 06:33:52;;;;;;;;;;;;;;;11.18;100.00;98343.66;5089251;28;19939;-37
2023/04/04 06:36:18;;;;;;;;;;;;;;;11.14;100.00;98348.63;5089598;28;19912;-36
2023/04/04 06:38:43;;;;;;;;;;;;;;;11.07;100.00;98360.50;5089543;28;19913;-38
2023/04/04 06:41:08;;;;;;;;;;;;;;;10.95;100.00;98356.03;5088737;28;20056;-39
2023/04/04 06:43:33;;;;;;;;;;;;;;;10.85;100.00;98345.22;5087939;28;19916;-36
2023/04/04 06:45:59;;;;;;;;;;;;;;;10.91;100.00;98357.56;5089472;28;20012;-37
2023/04/04 06:48:25;;;;;;;;;;;;;;;10.98;100.00;98360.06;5089594;28;20395;-37
2023/04/04 06:50:50;;;;;;;;;;;;;;;11.00;100.00;98351.84;5089396;28;19939;-36
2023/04/04 06:53:16;;;;;;;;;;;;;;;11.29;100.00;98348.09;5088557;28;20080;-37
2023/04/04 06:55:41;;;;;;;;;;;;;;;10.97;100.00;98350.47;5089244;28;20219;-37
2023/04/04 06:58:06;;;;;;;;;;;;;;;11.00;100.00;98343.84;5089374;28;19912;-37
2023/04/04 07:00:31;;;;;;;;;;;;;;;11.05;100.00;98347.41;5088978;28;20367;-39
2023/04/04 07:03:00;;;;;;;;;;;;;;;10.80;100.00;98347.00;5089467;28;19912;-36
2023/04/04 07:05:26;;;;;;;;;;;;;;;10.91;100.00;98348.78;5089062;28;19916;-38
2023/04/04 07:07:53;;;;;;;;;;;;;;;11.05;100.00;98350.06;5088741;28;19919;-37
2023/04/04 07:10:19;;;;;;;;;;;;;;;11.29;100.00;98356.06;5089132;28;19912;-36
2023/04/04 07:12:45;;;;;;;;;;;;;;;11.23;100.00;98349.06;5088853;28;20007;-36
2023/04/04 07:15:10;;;;;;;;;;;;;;;11.20;100.00;98362.06;5088875;28;20356;-42
2023/04/04 07:17:36;;;;;;;;;;;;;;;11.19;100.00;98347.91;5088931;28;19912;-42
2023/04/04 07:20:02;;;;;;;;;;;;;;;11.21;100.00;98353.00;5087298;28;19916;-43
2023/04/04 07:22:27;;;;;;;;;;;;;;;11.25;100.00;98370.09;5089295;28;19916;-43
2023/04/04 07:24:53;;;;;;;;;;;;;;;11.11;100.00;98366.94;5089128;28;19936;-44
2023/04/04 07:27:18;;;;;;;;;;;;;;;11.14;100.00;98366.47;5089402;28;19948;-43
2023/04/04 07:29:44;;;;;;;;;;;;;;;11.16;100.00;98372.38;5089308;28;19960;-43
2023/04/04 07:32:09;;;;;;;;;;;;;;;11.46;100.00;98371.25;5089305;28;20385;-43
2023/04/04 07:34:35;;;;;;;;;;;;;;;11.47;100.00;98372.88;5088964;28;20340;-42
2023/04/04 07:37:00;;;;;;;;;;;;;;;11.55;100.00;98373.25;5089201;28;19934;-43
2023/04/04 07:39:26;;;;;;;;;;;;;;;11.34;100.00;98379.31;5089188;28;20311;-42
2023/04/04 07:41:51;;;;;;;;;;;;;;;11.43;100.00;98371.75;5088931;28;19920;-43
2023/04/04 07:44:16;;;;;;;;;;;;;;;11.57;100.00;98383.66;5089145;28;19913;-43
2023/04/04 07:46:41;;;;;;;;;;;;;;;11.82;99.68;98372.59;5089284;28;19939;-43
2023/04/04 07:49:07;;;;;;;;;;;;;;;11.91;98.62;98379.13;5089469;28;19912;-42
2023/04/04 07:51:34;;;;;;;;;;;;;;;11.95;97.43;98379.47;5088319;28;20394;-44
2023/04/04 07:54:00;;;;;;;;;;;;;;;11.92;96.73;98379.97;5086633;28;19919;-43
2023/04/04 07:56:26;;;;;;;;;;;;;;;11.69;98.29;98386.25;5089214;28;19919;-43
2023/04/04 07:58:51;;;;;;;;;;;;;;;11.55;99.40;98377.78;5089041;28;19912;-42
2023/04/04 08:01:16;;;;;;;;;;;;;;;11.86;99.80;98381.72;5089266;28;19912;-42
2023/04/04 08:03:41;;;;;;;;;;;;;;;12.06;98.06;98381.22;5089920;28;20007;-43
2023/04/04 08:06:07;;;;;;;;;;;;;;;12.01;97.05;98378.47;5093459;28;20376;-43
2023/04/04 08:08:32;;;;;;;;;;;;;;;12.19;96.00;98371.25;5092602;28;19916;-42
2023/04/04 08:10:57;;;;;;;;;;;;;;;12.15;95.72;98367.44;5093298;28;19974;-42
2023/04/04 08:13:23;;;;;;;;;;;;;;;12.23;95.91;98367.84;5093210;28;19948;-43
2023/04/04 08:15:48;;;;;;;;;;;;;;;12.16;95.91;98377.06;5093257;28;20371;-42
2023/04/04 08:18:14;;;;;;;;;;;;;;;12.21;94.06;98379.81;5093228;28;19919;-42
2023/04/04 08:20:39;;;;;;;;;;;;;;;12.18;95.56;98377.63;5093000;28;19915;-42
2023/04/04 08:23:04;;;;;;;;;;;;;;;12.29;94.89;98384.72;5092820;28;19936;-42
2023/04/04 08:25:30;;;;;;;;;;;;;;;12.27;94.68;98390.28;5093108;28;20011;-43
2023/04/04 08:27:55;;;;;;;;;;;;;;;12.59;94.23;98388.81;5093065;28;20466;-43
2023/04/04 08:30:21;;;;;;;;;;;;;;;12.58;93.35;98393.31;5092972;28;20364;-43
2023/04/04 08:32:47;;;;;;;;;;;;;;;12.55;93.66;98385.84;5092940;28;19923;-42
2023/04/04 08:35:13;;;;;;;;;;;;;;;12.54;93.84;98383.41;5093183;28;20000;-43
2023/04/04 08:37:42;;;;;;;;;;;;;;;12.16;94.31;98391.22;5092781;28;20318;-43
2023/04/04 08:40:08;;;;;;;;;;;;;;;12.08;94.98;98389.78;5092437;28;19912;-43
2023/04/04 08:42:35;;;;;;;;;;;;;;;12.02;96.25;98387.28;5092503;28;19912;-44
2023/04/04 08:45:03;;;;;;;;;;;;;;;12.54;94.37;98394.09;5092656;28;19943;-42
2023/04/04 08:47:30;;;;;;;;;;;;;;;12.54;93.53;98389.53;5092520;28;19916;-43
2023/04/04 08:49:58;;;;;;;;;;;;;;;12.57;93.01;98391.72;5092706;28;20015;-43
2023/04/04 08:52:26;;;;;;;;;;;;;;;12.55;93.14;98393.84;5092404;28;19916;-42
2023/04/04 08:54:52;;;;;;;;;;;;;;;12.98;91.06;98400.16;5092298;28;19939;-46
2023/04/04 08:57:18;;;;;;;;;;;;;;;12.86;91.36;98400.31;5092736;28;19977;-42
2023/04/04 08:59:43;;;;;;;;;;;;;;;12.69;92.04;98399.59;5092409;28;20352;-42
2023/04/04 09:02:08;;;;;;;;;;;;;;;12.60;91.74;98399.22;5091880;28;19994;-44
2023/04/04 09:04:34;;;;;;;;;;;;;;;12.56;92.44;98406.09;5091721;28;20058;-44
2023/04/04 09:07:03;;;;;;;;;;;;;;;12.33;94.17;98402.63;5092260;28;19912;-42
2023/04/04 09:09:32;;;;;;;;;;;;;;;12.48;93.35;98403.88;5092156;28;19912;-43
2023/04/04 09:12:01;;;;;;;;;;;;;;;12.77;92.77;98401.81;5091830;28;19994;-42
2023/04/04 09:14:29;;;;;;;;;;;;;;;12.93;92.31;98407.31;5091663;28;19977;-44
2023/04/04 09:16:54;;;;;;;;;;;;;;;13.06;90.68;98404.25;5089304;28;19919;-43
2023/04/04 09:19:20;;;;;;;;;;;;;;;12.96;90.45;98409.50;5092154;28;19916;-43
2023/04/04 09:21:45;;;;;;;;;;;;;;;12.95;88.56;98407.91;5090926;28;19999;-45
2023/04/04 09:24:11;;;;;;;;;;;;;;;12.63;91.18;98395.25;5092264;28;19920;-45
2023/04/04 09:26:46;;;;;;;;;;;;;;;13.02;90.21;98397.78;5092370;28;19935;-45
2023/04/04 09:29:12;;;;;;;;;;;;;;;12.84;90.30;98399.75;5088010;28;19999;-43
2023/04/04 09:31:38;;;;;;;;;;;;;;;12.86;89.89;98412.88;5089751;28;20010;-42
2023/04/04 09:34:03;;;;;;;;;;;;;;;12.96;90.04;98406.81;5090565;28;20312;-42
2023/04/04 09:36:30;;;;;;;;;;;;;;;13.34;89.16;98402.41;5091684;28;20319;-43
2023/04/04 09:38:55;;;;;;;;;;;;;;;13.43;88.19;98408.91;5088158;28;19927;-43
2023/04/04 09:41:21;;;;;;;;;;;;;;;13.69;85.85;98408.03;5089212;28;19920;-43
2023/04/04 09:43:47;;;;;;;;;;;;;;;13.47;86.47;98402.00;5091256;28;20357;-43
2023/04/04 09:46:14;;;;;;;;;;;;;;;13.33;87.46;98412.28;5091373;28;20021;-44
2023/04/04 09:48:47;;;;;;;;;;;;;;;13.34;87.36;98411.22;5090880;28;19912;-44
2023/04/04 09:51:12;;;;;;;;;;;;;;;13.69;86.74;98415.25;5091361;28;19912;-43
2023/04/04 09:53:38;;;;;;;;;;;;;;;13.44;85.02;98410.50;5091519;28;20302;-43
2023/04/04 09:56:05;;;;;;;;;;;;;;;13.26;86.84;98415.13;5090951;28;19912;-43
2023/04/04 09:58:34;;;;;;;;;;;;;;;13.38;86.04;98412.31;5090240;28;19923;-43
2023/04/04 10:01:01;;;;;;;;;;;;;;;13.27;86.78;98413.28;5090276;28;20008;-43
2023/04/04 10:03:27;;;;;;;;;;;;;;;13.46;85.96;98409.22;5090059;28;19918;-43
2023/04/04 10:06:06;;;;;;;;;;;;;;;13.50;85.60;98414.84;5090103;28;20402;-42
2023/04/04 10:08:32;;;;;;;;;;;;;;;13.60;84.61;98411.44;5090928;28;19962;-42
2023/04/04 10:10:58;;;;;;;;;;;;;;;13.80;84.28;98410.78;5090002;28;19947;-42
2023/04/04 10:13:27;;;;;;;;;;;;;;;13.96;84.23;98412.50;5090252;28;19916;-44
2023/04/04 10:15:53;;;;;;;;;;;;;;;13.53;84.74;98413.53;5090760;28;19951;-44
2023/04/04 10:18:21;;;;;;;;;;;;;;;13.85;83.84;98405.47;5090643;28;20214;-44
2023/04/04 10:20:47;;;;;;;;;;;;;;;13.95;83.10;98400.19;5091055;28;19937;-44
2023/04/04 10:23:14;;;;;;;;;;;;;;;14.03;82.65;98402.41;5090992;28;19927;-43
2023/04/04 10:25:39;;;;;;;;;;;;;;;14.02;82.43;98405.31;5090618;28;19916;-43
2023/04/04 10:28:05;;;;;;;;;;;;;;;14.30;81.93;98401.47;5090007;28;20065;-43
2023/04/04 10:30:33;;;;;;;;;;;;;;;14.13;81.49;98395.50;5090556;28;20006;-43
2023/04/04 10:33:06;;;;;;;;;;;;;;;14.42;80.89;98385.97;5091045;28;19923;-43
2023/04/04 10:35:33;;;;;;;;;;;;;;;14.41;80.94;98387.06;5090624;28;19912;-43
2023/04/04 10:38:00;;;;;;;;;;;;;;;14.52;81.45;98385.22;5090483;28;19961;-44
2023/04/04 10:40:30;;;;;;;;;;;;;;;14.81;77.98;98380.28;5090370;28;19952;-43
2023/04/04 10:42:56;;;;;;;;;;;;;;;14.86;77.63;98377.59;5090415;28;19916;-42
2023/04/04 10:45:22;;;;;;;;;;;;;;;14.93;77.62;98377.34;5090172;28;19912;-45
2023/04/04 10:47:47;;;;;;;;;;;;;;;15.37;76.79;98379.53;5090334;28;19912;-43
2023/04/04 10:50:12;;;;;;;;;;;;;;;15.68;75.70;98376.84;5090249;28;19916;-43
2023/04/04 10:52:39;;;;;;;;;;;;;;;15.51;75.68;98376.31;5090091;28;19966;-43
2023/04/04 10:55:06;;;;;;;;;;;;;;;15.55;76.00;98374.69;5090258;28;19912;-44
2023/04/04 10:57:39;;;;;;;;;;;;;;;16.34;73.05;98377.78;5090260;28;20280;-44
2023/04/04 11:00:07;;;;;;;;;;;;;;;16.18;71.54;98371.66;5090314;28;20200;-42
2023/04/04 11:02:46;;;;;;;;;;;;;;;16.03;73.13;98364.47;5090295;28;19919;-43
2023/04/04 11:05:33;;;;;;;;;;;;;;;16.73;70.21;98369.81;5090197;28;19919;-43
2023/04/04 11:07:58;;;;;;;;;;;;;;;16.35;71.30;98372.13;5083051;28;19920;-42
2023/04/04 11:10:47;;;;;;;;;;;;;;;16.69;68.10;98374.13;5089948;28;19912;-43
2023/04/04 11:13:15;;;;;;;;;;;;;;;16.78;66.98;98377.06;5084210;28;19985;-43
2023/04/04 11:15:56;;;;;;;;;;;;;;;17.03;66.88;98375.31;5090174;28;20003;-44
2023/04/04 11:18:42;;;;;;;;;;;;;;;16.51;67.72;98372.09;5089975;28;19912;-42
2023/04/04 11:21:08;;;;;;;;;;;;;;;16.52;67.97;98371.00;5082437;28;19912;-44
2023/04/04 11:23:48;;;;;;;;;;;;;;;17.02;68.09;98366.47;5090003;28;19973;-46
2023/04/04 11:26:29;;;;;;;;;;;;;;;16.03;68.29;98372.53;5089912;28;20452;-42
2023/04/04 11:28:58;;;;;;;;;;;;;;;16.56;68.08;98367.50;5090224;28;19923;-44
2023/04/04 11:31:28;;;;;;;;;;;;;;;17.02;66.41;98368.31;5089844;28;19912;-42
2023/04/04 11:33:56;;;;;;;;;;;;;;;16.87;65.18;98361.16;5090315;28;19956;-44
2023/04/04 11:36:33;;;;;;;;;;;;;;;17.06;65.76;98354.06;5089751;28;19911;-44
2023/04/04 11:38:59;;;;;;;;;;;;;;;16.66;63.52;98363.13;5091448;28;19962;-43
2023/04/04 11:41:41;;;;;;;;;;;;;;;17.16;62.05;98351.28;5094058;28;20006;-44
2023/04/04 11:44:07;;;;;;;;;;;;;;;17.45;61.63;98355.91;5094059;28;20276;-44
2023/04/04 11:46:33;;;;;;;;;;;;;;;16.97;62.24;98361.13;5093887;28;19912;-42
2023/04/04 11:48:58;;;;;;;;;;;;;;;17.08;62.17;98351.91;5093579;28;19912;-43
2023/04/04 11:51:24;;;;;;;;;;;;;;;16.93;61.77;98357.38;5093646;28;19961;-42
2023/04/04 11:53:50;;;;;;;;;;;;;;;16.83;61.23;98362.81;5094471;28;19962;-44
2023/04/04 11:56:16;;;;;;;;;;;;;;;17.19;60.55;98356.13;5093783;28;20322;-43
2023/04/04 11:58:45;;;;;;;;;;;;;;;16.51;63.42;98361.34;5094320;28;19912;-44
2023/04/04 12:01:10;;;;;;;;;;;;;;;17.05;61.90;98365.09;5094178;28;19912;-42
2023/04/04 12:03:36;;;;;;;;;;;;;;;17.09;60.75;98355.38;5094087;28;19934;-43
2023/04/04 12:06:02;;;;;;;;;;;;;;;16.99;59.38;98361.63;5094297;28;19919;-44
2023/04/04 12:08:27;;;;;;;;;;;;;;;16.87;60.52;98359.31;5093575;28;19922;-42
2023/04/04 12:10:52;;;;;;;;;;;;;;;16.57;62.96;98365.59;5093415;28;19923;-44
2023/04/04 12:13:18;;;;;;;;;;;;;;;16.62;63.51;98362.91;5093584;28;19920;-43
2023/04/04 12:15:43;;;;;;;;;;;;;;;16.17;64.80;98364.69;5093402;28;19919;-42
2023/04/04 12:18:09;;;;;;;;;;;;;;;16.25;64.30;98358.75;5093411;28;19919;-43
2023/04/04 12:20:38;;;;;;;;;;;;;;;16.35;64.16;98345.28;5093120;28;19992;-43
2023/04/04 12:23:04;;;;;;;;;;;;;;;16.39;65.82;98359.78;5093463;28;20260;-42
2023/04/04 12:25:32;;;;;;;;;;;;;;;16.13;66.29;98355.59;5093296;28;19923;-43
2023/04/04 12:27:58;;;;;;;;;;;;;;;16.06;68.30;98355.06;5093219;28;19939;-42
2023/04/04 12:30:24;;;;;;;;;;;;;;;16.07;68.33;98364.72;5093249;28;19912;-42
2023/04/04 12:32:49;;;;;;;;;;;;;;;15.88;69.25;98359.94;5093012;28;20535;-44
2023/04/04 12:35:15;;;;;;;;;;;;;;;15.44;72.98;98363.19;5093195;28;19923;-44